createdAt,value
2022-12-03T00:01:20.678Z,62.22
2022-12-03T00:03:48.887Z,56.45
2022-12-03T00:06:19.305Z,64.63
2022-12-03T00:08:47.679Z,64.28
2022-12-03T00:11:16.212Z,63.53
2022-12-03T00:13:45.541Z,66.63
2022-12-03T00:16:14.160Z,66.03
2022-12-03T00:18:42.377Z,59.97
2022-12-03T00:21:11.104Z,61.90
2022-12-03T00:23:42.309Z,62.65
2022-12-03T00:26:11.468Z,60.95
2022-12-03T00:28:39.803Z,58.33
2022-12-03T00:31:08.617Z,60.45
2022-12-03T00:33:36.982Z,61.92
2022-12-03T00:36:06.077Z,68.65
2022-12-03T00:38:34.383Z,66.63
2022-12-03T00:41:02.927Z,64.10
2022-12-03T00:43:31.051Z,67.63
2022-12-03T00:45:59.808Z,64.60
2022-12-03T00:48:28.023Z,62.00
2022-12-03T00:50:56.719Z,62.58
2022-12-03T00:53:24.846Z,57.97
2022-12-03T00:55:53.624Z,65.60
2022-12-03T00:58:21.828Z,67.47
2022-12-03T01:00:50.363Z,69.03
2022-12-03T01:03:18.445Z,65.40
2022-12-03T01:05:46.961Z,69.63
2022-12-03T01:08:15.303Z,63.28
2022-12-03T01:10:44.228Z,67.97
2022-12-03T01:13:12.322Z,64.07
2022-12-03T01:15:41.468Z,68.82
2022-12-03T01:18:09.655Z,61.38
2022-12-03T01:20:38.816Z,61.45
2022-12-03T01:23:07.068Z,68.78
2022-12-03T01:25:35.621Z,69.50
2022-12-03T01:28:04.042Z,74.80
2022-12-03T01:30:52.724Z,66.25
2022-12-03T01:33:20.960Z,69.40
2022-12-03T01:35:49.526Z,63.55
2022-12-03T01:38:17.775Z,69.70
2022-12-03T01:40:46.361Z,67.03
2022-12-03T01:43:14.529Z,68.25
2022-12-03T01:45:44.480Z,68.97
2022-12-03T01:48:17.029Z,68.75
2022-12-03T01:50:46.054Z,64.10
2022-12-03T01:53:16.880Z,63.38
2022-12-03T01:55:48.797Z,64.05
2022-12-03T01:58:21.466Z,72.03
2022-12-03T02:00:50.124Z,71.68
2022-12-03T02:03:25.771Z,68.80
2022-12-03T02:05:54.662Z,66.65
2022-12-03T02:08:34.647Z,71.38
2022-12-03T02:11:21.478Z,69.85
2022-12-03T02:13:53.334Z,65.00
2022-12-03T02:16:22.224Z,65.82
2022-12-03T02:18:50.618Z,69.80
2022-12-03T02:21:43.189Z,65.82
2022-12-03T02:24:52.198Z,68.70
2022-12-03T02:27:22.316Z,69.70
2022-12-03T02:29:51.059Z,67.70
2022-12-03T02:32:23.474Z,65.90
2022-12-03T02:34:53.647Z,69.93
2022-12-03T02:37:27.193Z,64.68
2022-12-03T02:39:59.937Z,66.60
2022-12-03T02:42:35.370Z,60.95
2022-12-03T02:45:20.980Z,64.45
2022-12-03T02:48:18.014Z,61.83
2022-12-03T02:50:52.079Z,60.90
2022-12-03T02:53:25.950Z,63.28
2022-12-03T02:55:58.077Z,61.78
2022-12-03T02:58:28.933Z,62.10
2022-12-03T03:01:03.088Z,64.40
2022-12-03T03:03:32.684Z,56.90
2022-12-03T03:06:03.125Z,59.17
2022-12-03T03:08:32.095Z,59.28
2022-12-03T03:11:02.299Z,62.40
2022-12-03T03:13:33.875Z,58.63
2022-12-03T03:16:04.117Z,55.65
2022-12-03T03:21:04.015Z,57.40
2022-12-03T03:23:32.728Z,60.67
2022-12-03T03:26:07.471Z,58.97
2022-12-03T03:28:39.425Z,62.47
2022-12-03T03:31:11.628Z,57.53
2022-12-03T03:33:43.180Z,56.72
2022-12-03T03:36:13.334Z,59.63
2022-12-03T03:38:42.753Z,60.20
2022-12-03T03:41:12.896Z,57.33
2022-12-03T03:43:43.312Z,55.17
2022-12-03T03:46:12.556Z,54.08
2022-12-03T03:48:43.862Z,63.60
2022-12-03T03:51:13.456Z,59.85
2022-12-03T03:53:45.654Z,58.83
2022-12-03T03:56:15.969Z,58.35
2022-12-03T03:58:44.645Z,61.92
2022-12-03T04:01:14.574Z,58.13
2022-12-03T04:03:43.361Z,55.00
2022-12-03T04:06:11.634Z,55.45
2022-12-03T04:08:40.076Z,55.10
2022-12-03T04:11:26.827Z,59.85
2022-12-03T04:13:55.552Z,54.53
2022-12-03T04:16:24.009Z,53.72
2022-12-03T04:18:52.584Z,57.03
2022-12-03T04:21:42.320Z,57.88
2022-12-03T04:24:12.136Z,53.25
2022-12-03T04:26:58.932Z,57.78
2022-12-03T04:29:27.431Z,55.50
2022-12-03T04:32:14.109Z,64.65
2022-12-03T04:35:01.093Z,59.90
2022-12-03T04:37:29.455Z,54.17
2022-12-03T04:40:00.990Z,57.38
2022-12-03T04:42:29.194Z,61.42
2022-12-03T04:44:58.705Z,58.70
2022-12-03T04:47:28.116Z,60.97
2022-12-03T04:49:56.595Z,58.60
2022-12-03T04:52:24.832Z,59.63
2022-12-03T04:54:53.938Z,57.65
2022-12-03T04:57:22.423Z,60.92
2022-12-03T04:59:51.018Z,63.67
2022-12-03T05:02:19.410Z,62.28
2022-12-03T05:04:48.296Z,63.15
2022-12-03T05:07:16.628Z,65.55
2022-12-03T05:09:44.998Z,64.40
2022-12-03T05:12:13.913Z,67.50
2022-12-03T05:14:42.084Z,59.38
2022-12-03T05:17:10.612Z,62.78
2022-12-03T05:19:57.350Z,59.85
2022-12-03T05:22:25.959Z,64.72
2022-12-03T05:24:54.438Z,61.55
2022-12-03T05:27:24.174Z,64.82
2022-12-03T05:29:55.277Z,69.70
2022-12-03T05:32:23.809Z,70.72
2022-12-03T05:34:52.270Z,67.78
2022-12-03T05:37:21.208Z,67.57
2022-12-03T05:39:52.261Z,69.20
2022-12-03T05:42:39.313Z,69.45
2022-12-03T05:45:07.981Z,73.60
2022-12-03T05:47:36.596Z,65.32
2022-12-03T05:50:05.847Z,67.22
2022-12-03T05:52:34.424Z,76.60
2022-12-03T05:55:02.663Z,69.30
2022-12-03T05:57:31.338Z,72.78
2022-12-03T05:59:59.541Z,64.50
2022-12-03T06:02:28.195Z,61.92
2022-12-03T06:04:56.898Z,65.82
2022-12-03T06:07:25.621Z,66.05
2022-12-03T06:09:53.880Z,60.45
2022-12-03T06:12:22.467Z,71.40
2022-12-03T06:14:51.797Z,66.05
2022-12-03T06:17:21.291Z,67.30
2022-12-03T06:19:49.789Z,76.90
2022-12-03T06:22:18.782Z,73.75
2022-12-03T06:24:47.352Z,72.05
2022-12-03T06:27:16.171Z,71.95
2022-12-03T06:29:47.619Z,71.57
2022-12-03T06:32:16.261Z,73.90
2022-12-03T06:34:44.593Z,66.65
2022-12-03T06:37:13.276Z,72.10
2022-12-03T06:39:41.900Z,66.25
2022-12-03T06:42:10.480Z,72.82
2022-12-03T06:44:38.799Z,70.63
2022-12-03T06:47:07.525Z,70.95
2022-12-03T06:49:35.803Z,66.32
2022-12-03T06:52:04.480Z,71.28
2022-12-03T06:54:32.653Z,73.35
2022-12-03T06:57:01.172Z,79.00
2022-12-03T06:59:29.736Z,75.43
2022-12-03T07:01:58.471Z,66.95
2022-12-03T07:04:26.763Z,88.68
2022-12-03T07:07:14.970Z,84.95
2022-12-03T07:09:43.148Z,80.03
2022-12-03T07:12:11.656Z,72.28
2022-12-03T07:14:39.784Z,77.32
2022-12-03T07:17:08.396Z,69.90
2022-12-03T07:19:36.660Z,71.07
2022-12-03T07:22:05.403Z,73.43
2022-12-03T07:24:33.811Z,77.47
2022-12-03T07:27:02.522Z,71.75
2022-12-03T07:29:31.842Z,76.85
2022-12-03T07:32:00.763Z,75.10
2022-12-03T07:34:29.655Z,66.90
2022-12-03T07:36:59.540Z,61.00
2022-12-03T07:39:27.760Z,61.45
2022-12-03T07:41:56.406Z,65.18
2022-12-03T07:44:24.948Z,77.35
2022-12-03T07:46:54.085Z,78.80
2022-12-03T07:49:22.504Z,96.22
2022-12-03T07:51:54.575Z,87.00
2022-12-03T07:54:26.237Z,94.22
2022-12-03T07:59:30.009Z,76.78
2022-12-03T08:01:58.887Z,69.80
2022-12-03T08:04:29.177Z,69.43
2022-12-03T08:06:58.051Z,61.35
2022-12-03T08:09:28.766Z,72.93
2022-12-03T08:12:02.971Z,68.55
2022-12-03T08:14:31.130Z,68.18
2022-12-03T08:16:59.731Z,68.70
2022-12-03T08:19:27.894Z,65.82
2022-12-03T08:22:01.048Z,65.00
2022-12-03T08:24:30.679Z,67.53
2022-12-03T08:26:59.794Z,70.97
2022-12-03T08:29:28.061Z,89.53
2022-12-03T08:31:58.629Z,68.45
2022-12-03T08:34:31.759Z,78.20
2022-12-03T08:37:06.132Z,89.32
2022-12-03T08:39:49.676Z,77.30
2022-12-03T08:42:41.938Z,92.68
2022-12-03T08:45:29.186Z,90.15
2022-12-03T08:48:01.729Z,79.65
2022-12-03T08:53:27.513Z,70.45
2022-12-03T08:56:13.830Z,76.22
2022-12-03T09:01:32.864Z,85.05
2022-12-03T09:04:32.370Z,74.22
2022-12-03T09:07:00.873Z,72.97
2022-12-03T09:09:29.752Z,71.90
2022-12-03T09:11:58.080Z,74.63
2022-12-03T09:14:26.752Z,71.30
2022-12-03T09:16:56.377Z,69.05
2022-12-03T09:19:27.148Z,79.55
2022-12-03T09:21:58.202Z,66.90
2022-12-03T09:24:27.692Z,76.13
2022-12-03T09:26:55.966Z,78.22
2022-12-03T09:29:24.714Z,71.20
2022-12-03T09:31:54.147Z,70.40
2022-12-03T09:34:22.701Z,68.50
2022-12-03T09:36:53.294Z,73.03
2022-12-03T09:39:50.058Z,72.00
2022-12-03T09:42:18.344Z,69.75
2022-12-03T09:44:47.055Z,72.38
2022-12-03T09:47:15.239Z,65.68
2022-12-03T09:49:44.432Z,78.97
2022-12-03T09:52:23.943Z,80.45
2022-12-03T09:54:53.969Z,68.78
2022-12-03T09:57:22.475Z,63.03
2022-12-03T09:59:51.056Z,63.88
2022-12-03T10:02:29.940Z,63.13
2022-12-03T10:04:58.969Z,68.05
2022-12-03T10:07:27.468Z,69.40
2022-12-03T10:10:00.644Z,62.72
2022-12-03T10:12:30.710Z,68.85
2022-12-03T10:14:59.370Z,81.18
2022-12-03T10:17:56.633Z,80.32
2022-12-03T10:20:26.078Z,94.63
2022-12-03T10:22:55.146Z,79.28
2022-12-03T10:25:26.438Z,73.22
2022-12-03T10:30:59.559Z,64.55
2022-12-03T10:33:37.393Z,66.57
2022-12-03T10:36:24.028Z,71.97
2022-12-03T10:39:10.739Z,73.85
2022-12-03T10:41:41.296Z,76.45
2022-12-03T10:44:21.924Z,84.70
2022-12-03T10:47:10.401Z,84.82
2022-12-03T10:49:43.006Z,76.18
2022-12-03T10:52:35.598Z,83.63
2022-12-03T10:57:45.853Z,72.18
2022-12-03T11:00:23.020Z,74.85
2022-12-03T11:02:56.727Z,77.32
2022-12-03T11:05:27.551Z,81.97
2022-12-03T11:08:00.412Z,83.45
2022-12-03T11:10:28.652Z,73.75
2022-12-03T11:13:27.900Z,68.78
2022-12-03T11:15:56.881Z,70.57
2022-12-03T11:18:50.192Z,70.85
2022-12-03T11:21:19.007Z,67.00
2022-12-03T11:24:18.743Z,68.90
2022-12-03T11:27:07.123Z,68.90
2022-12-03T11:29:56.373Z,70.65
2022-12-03T11:32:40.467Z,118.90
2022-12-03T11:35:13.099Z,83.18
2022-12-03T11:37:41.447Z,76.38
2022-12-03T11:40:18.968Z,76.30
2022-12-03T11:42:49.083Z,68.53
2022-12-03T11:45:43.879Z,68.55
2022-12-03T11:48:15.119Z,71.85
2022-12-03T11:50:45.351Z,67.60
2022-12-03T11:53:25.047Z,69.03
2022-12-03T11:56:08.559Z,69.35
2022-12-03T11:58:40.170Z,75.40
2022-12-03T12:01:09.540Z,76.78
2022-12-03T12:03:48.906Z,73.35
2022-12-03T12:06:19.950Z,70.20
2022-12-03T12:08:51.130Z,73.38
2022-12-03T12:11:23.823Z,66.75
2022-12-03T12:13:55.509Z,64.28
2022-12-03T12:19:35.587Z,81.45
2022-12-03T12:22:23.200Z,87.53
2022-12-03T12:25:02.969Z,83.90
2022-12-03T12:28:26.545Z,70.20
2022-12-03T12:31:05.983Z,89.80
2022-12-03T12:33:37.723Z,79.30
2022-12-03T12:36:09.342Z,86.05
2022-12-03T12:41:10.009Z,94.75
2022-12-03T12:43:39.660Z,96.85
2022-12-03T12:46:46.004Z,98.65
2022-12-03T12:49:16.175Z,96.47
2022-12-03T12:52:00.919Z,102.05
2022-12-03T12:55:03.184Z,85.53
2022-12-03T13:00:17.984Z,94.30
2022-12-03T13:02:51.810Z,106.78
2022-12-03T13:05:24.976Z,102.25
2022-12-03T13:08:10.096Z,96.28
2022-12-03T13:10:42.452Z,95.57
2022-12-03T13:13:20.707Z,99.57
2022-12-03T13:15:50.840Z,94.65
2022-12-03T13:18:25.542Z,106.70
2022-12-03T13:20:55.911Z,94.07
2022-12-03T13:23:33.652Z,95.75
2022-12-03T13:28:46.919Z,89.18
2022-12-03T13:31:23.178Z,80.40
2022-12-03T13:33:54.700Z,95.05
2022-12-03T13:36:35.919Z,97.82
2022-12-03T13:39:21.579Z,102.15
2022-12-03T13:42:09.719Z,97.18
2022-12-03T13:44:44.344Z,93.53
2022-12-03T13:47:24.049Z,99.45
2022-12-03T13:50:03.874Z,94.45
2022-12-03T13:52:34.792Z,90.15
2022-12-03T13:55:04.302Z,95.85
2022-12-03T13:57:46.622Z,96.55
2022-12-03T14:03:20.212Z,106.40
2022-12-03T14:05:53.797Z,91.95
2022-12-03T14:08:22.687Z,86.40
2022-12-03T14:10:55.507Z,81.28
2022-12-03T14:13:27.609Z,88.75
2022-12-03T14:15:57.941Z,95.43
2022-12-03T14:18:29.597Z,87.07
2022-12-03T14:21:00.273Z,104.32
2022-12-03T14:23:28.843Z,89.55
2022-12-03T14:25:57.979Z,94.72
2022-12-03T14:28:26.540Z,102.40
2022-12-03T14:30:54.746Z,104.75
2022-12-03T14:33:24.526Z,111.93
2022-12-03T14:36:07.981Z,113.15
2022-12-03T14:38:36.576Z,108.15
2022-12-03T14:41:04.739Z,103.63
2022-12-03T14:43:33.173Z,102.28
2022-12-03T14:46:02.533Z,121.90
2022-12-03T14:48:31.074Z,114.35
2022-12-03T14:51:02.978Z,115.05
2022-12-03T14:53:58.320Z,106.35
2022-12-03T14:56:26.869Z,104.40
2022-12-03T14:58:55.576Z,96.28
2022-12-03T15:01:40.875Z,92.85
2022-12-03T15:04:09.553Z,103.55
2022-12-03T15:06:40.639Z,92.85
2022-12-03T15:09:09.440Z,103.90
2022-12-03T15:11:41.528Z,103.13
2022-12-03T15:14:14.266Z,108.43
2022-12-03T15:16:42.644Z,107.75
2022-12-03T15:19:11.254Z,104.35
2022-12-03T15:21:39.443Z,100.00
2022-12-03T15:24:08.124Z,112.53
2022-12-03T15:26:36.395Z,109.70
2022-12-03T15:29:06.028Z,108.00
2022-12-03T15:31:34.321Z,111.70
2022-12-03T15:34:02.983Z,100.10
2022-12-03T15:36:31.198Z,88.78
2022-12-03T15:38:59.760Z,93.43
2022-12-03T15:41:30.870Z,101.75
2022-12-03T15:44:04.124Z,101.38
2022-12-03T15:46:32.623Z,100.55
2022-12-03T15:49:02.242Z,117.22
2022-12-03T15:51:30.435Z,109.30
2022-12-03T15:53:59.010Z,94.80
2022-12-03T15:59:36.032Z,90.63
2022-12-03T16:02:04.520Z,98.05
2022-12-03T16:04:33.104Z,82.63
2022-12-03T16:07:01.229Z,92.45
2022-12-03T16:09:29.933Z,100.97
2022-12-03T16:11:58.183Z,96.43
2022-12-03T16:14:26.728Z,99.35
2022-12-03T16:16:55.437Z,102.53
2022-12-03T16:19:23.886Z,115.75
2022-12-03T16:21:52.156Z,102.65
2022-12-03T16:24:20.653Z,100.38
2022-12-03T16:26:48.855Z,97.15
2022-12-03T16:29:18.854Z,100.28
2022-12-03T16:31:47.126Z,88.65
2022-12-03T16:34:15.758Z,97.90
2022-12-03T16:36:45.792Z,102.57
2022-12-03T16:39:34.480Z,110.65
2022-12-03T16:42:04.477Z,109.10
2022-12-03T16:47:35.776Z,104.97
2022-12-03T16:50:09.792Z,121.45
2022-12-03T16:53:05.576Z,115.65
2022-12-03T16:55:34.364Z,120.97
2022-12-03T16:58:04.420Z,101.20
2022-12-03T17:00:33.247Z,100.78
2022-12-03T17:03:03.499Z,112.40
2022-12-03T17:05:32.850Z,108.60
2022-12-03T17:08:01.359Z,109.80
2022-12-03T17:10:38.685Z,109.95
2022-12-03T17:13:09.711Z,103.63
2022-12-03T17:16:05.250Z,101.07
2022-12-03T17:18:33.833Z,107.53
2022-12-03T17:21:02.603Z,102.53
2022-12-03T17:23:30.883Z,116.82
2022-12-03T17:26:00.297Z,95.72
2022-12-03T17:28:55.716Z,99.72
2022-12-03T17:31:27.403Z,98.22
2022-12-03T17:33:58.037Z,117.63
2022-12-03T17:36:26.787Z,119.07
2022-12-03T17:39:01.488Z,109.25
2022-12-03T17:41:30.098Z,111.03
2022-12-03T17:47:00.216Z,114.07
2022-12-03T17:49:31.701Z,114.18
2022-12-03T17:52:26.560Z,131.57
2022-12-03T17:55:10.839Z,138.70
2022-12-03T17:57:40.461Z,168.65
2022-12-03T18:00:09.524Z,164.05
2022-12-03T18:02:43.619Z,176.88
2022-12-03T18:08:15.283Z,143.80
2022-12-03T18:11:34.757Z,104.40
2022-12-03T18:14:03.066Z,112.28
2022-12-03T18:16:34.582Z,122.05
2022-12-03T18:19:06.185Z,111.18
2022-12-03T18:21:35.445Z,104.53
2022-12-03T18:28:36.614Z,110.63
2022-12-03T18:31:31.783Z,113.50
2022-12-03T18:34:00.974Z,112.65
2022-12-03T18:36:54.543Z,102.72
2022-12-03T18:39:48.723Z,93.25
2022-12-03T18:42:20.361Z,89.47
2022-12-03T18:47:28.697Z,97.50
2022-12-03T18:49:57.948Z,122.10
2022-12-03T18:52:26.313Z,122.88
2022-12-03T18:55:19.915Z,116.68
2022-12-03T18:57:48.207Z,120.85
2022-12-03T19:00:17.248Z,115.10
2022-12-03T19:03:02.578Z,130.05
2022-12-03T19:05:35.446Z,112.20
2022-12-03T19:08:05.436Z,115.35
2022-12-03T19:10:34.301Z,106.57
2022-12-03T19:13:04.018Z,100.30
2022-12-03T19:15:32.581Z,100.70
2022-12-03T19:18:00.994Z,104.22
2022-12-03T19:20:29.755Z,97.75
2022-12-03T19:22:58.063Z,106.45
2022-12-03T19:25:26.507Z,107.50
2022-12-03T19:27:55.204Z,110.85
2022-12-03T19:30:23.721Z,106.38
2022-12-03T19:32:52.081Z,99.72
2022-12-03T19:35:21.534Z,98.40
2022-12-03T19:37:50.468Z,98.65
2022-12-03T19:40:20.500Z,105.32
2022-12-03T19:42:48.593Z,92.68
2022-12-03T19:45:17.448Z,103.70
2022-12-03T19:47:45.665Z,108.18
2022-12-03T19:50:22.659Z,114.75
2022-12-03T19:52:51.433Z,108.40
2022-12-03T19:55:20.287Z,105.63
2022-12-03T19:57:48.850Z,101.65
2022-12-03T20:00:17.829Z,104.70
2022-12-03T20:02:49.118Z,97.70
2022-12-03T20:05:17.995Z,104.13
2022-12-03T20:08:11.697Z,121.25
2022-12-03T20:10:52.895Z,138.45
2022-12-03T20:14:39.746Z,106.63
2022-12-03T20:17:35.739Z,97.03
2022-12-03T20:20:21.028Z,95.07
2022-12-03T20:22:49.571Z,102.88
2022-12-03T20:25:18.156Z,181.55
2022-12-03T20:27:46.727Z,106.85
2022-12-03T20:30:15.155Z,119.38
2022-12-03T20:32:45.676Z,148.82
2022-12-03T20:35:13.962Z,95.20
2022-12-03T20:37:42.536Z,113.63
2022-12-03T20:40:11.155Z,111.78
2022-12-03T20:42:39.821Z,118.47
2022-12-03T20:45:13.486Z,122.10
2022-12-03T20:47:42.571Z,106.85
2022-12-03T20:50:11.023Z,104.78
2022-12-03T20:52:48.496Z,114.72
2022-12-03T20:55:25.992Z,109.88
2022-12-03T20:57:54.887Z,106.72
2022-12-03T21:00:23.626Z,98.80
2022-12-03T21:02:52.381Z,109.05
2022-12-03T21:05:21.300Z,113.22
2022-12-03T21:07:52.634Z,140.85
2022-12-03T21:10:39.370Z,146.55
2022-12-03T21:13:07.910Z,144.95
2022-12-03T21:15:36.387Z,143.65
2022-12-03T21:18:05.127Z,105.38
2022-12-03T21:20:33.276Z,109.38
2022-12-03T21:26:21.929Z,101.35
2022-12-03T21:31:26.666Z,108.03
2022-12-03T21:38:04.246Z,126.22
2022-12-03T21:40:33.192Z,128.40
2022-12-03T21:43:01.319Z,138.93
2022-12-03T21:45:29.812Z,124.25
2022-12-03T21:47:58.134Z,99.80
2022-12-03T21:50:26.973Z,107.97
2022-12-03T21:52:55.861Z,105.35
2022-12-03T21:55:24.601Z,118.47
2022-12-03T21:57:53.410Z,106.68
2022-12-03T22:00:22.611Z,110.78
2022-12-03T22:02:51.098Z,104.57
2022-12-03T22:05:19.883Z,104.15
2022-12-03T22:07:52.340Z,103.85
2022-12-03T22:10:21.039Z,104.00
2022-12-03T22:12:49.447Z,113.95
2022-12-03T22:15:19.473Z,109.18
2022-12-03T22:17:48.328Z,103.35
2022-12-03T22:20:17.991Z,106.13
2022-12-03T22:22:46.187Z,108.50
2022-12-03T22:25:15.192Z,105.07
2022-12-03T22:27:43.471Z,104.53
2022-12-03T22:30:12.162Z,111.55
2022-12-03T22:32:40.347Z,109.88
2022-12-03T22:35:09.789Z,96.40
2022-12-03T22:37:38.927Z,109.75
2022-12-03T22:40:08.032Z,107.15
2022-12-03T22:42:36.236Z,101.88
2022-12-03T22:45:05.242Z,119.47
2022-12-03T22:47:33.510Z,112.32
2022-12-03T22:50:03.181Z,107.72
2022-12-03T22:52:31.508Z,108.20
2022-12-03T22:55:00.330Z,107.30
2022-12-03T22:57:28.442Z,117.90
2022-12-03T22:59:57.227Z,106.88
2022-12-03T23:02:25.568Z,107.53
2022-12-03T23:04:59.961Z,112.28
2022-12-03T23:07:28.237Z,111.78
2022-12-03T23:09:57.114Z,108.65
2022-12-03T23:12:25.856Z,108.82
2022-12-03T23:14:55.884Z,107.97
2022-12-03T23:17:24.138Z,107.25
2022-12-03T23:19:52.912Z,103.70
2022-12-03T23:22:21.841Z,107.53
2022-12-03T23:24:49.937Z,110.05
2022-12-03T23:27:18.663Z,114.57
2022-12-03T23:29:46.854Z,111.80
2022-12-03T23:32:15.948Z,109.05
2022-12-03T23:34:47.012Z,105.88
2022-12-03T23:37:16.002Z,107.55
2022-12-03T23:39:45.863Z,111.40
2022-12-03T23:42:15.692Z,113.82
2022-12-03T23:44:44.839Z,105.70
2022-12-03T23:47:14.133Z,110.68
2022-12-03T23:49:42.339Z,104.05
2022-12-03T23:52:10.902Z,107.82
2022-12-03T23:54:39.057Z,110.93
2022-12-03T23:57:07.725Z,109.10
2022-12-03T23:59:36.159Z,113.10
